createdAt,value
2017-12-15T00:01:19.285Z,6.00
2017-12-15T00:03:47.719Z,5.10
2017-12-15T00:06:15.430Z,7.90
2017-12-15T00:08:43.862Z,3.80
2017-12-15T00:11:11.602Z,3.67
2017-12-15T00:13:39.282Z,6.23
2017-12-15T00:16:06.996Z,4.70
2017-12-15T00:18:35.457Z,5.33
2017-12-15T00:21:03.944Z,6.37
2017-12-15T00:23:32.376Z,8.63
2017-12-15T00:26:00.862Z,6.30
2017-12-15T00:28:29.491Z,2.90
2017-12-15T00:30:58.000Z,3.87
2017-12-15T00:33:25.668Z,5.47
2017-12-15T00:35:53.387Z,4.67
2017-12-15T00:38:21.816Z,3.73
2017-12-15T00:40:49.519Z,5.27
2017-12-15T00:43:17.188Z,3.17
2017-12-15T00:45:44.893Z,4.97
2017-12-15T00:48:13.339Z,4.00
2017-12-15T00:50:41.071Z,4.50
2017-12-15T00:53:09.494Z,3.53
2017-12-15T00:55:37.215Z,3.23
2017-12-15T00:58:05.675Z,9.07
2017-12-15T01:00:33.394Z,6.13
2017-12-15T01:03:01.079Z,4.00
2017-12-15T01:05:28.890Z,3.80
2017-12-15T01:07:56.559Z,4.93
2017-12-15T01:10:24.276Z,3.90
2017-12-15T01:12:51.968Z,4.63
2017-12-15T01:15:19.703Z,5.53
2017-12-15T01:17:47.383Z,3.60
2017-12-15T01:20:15.890Z,5.33
2017-12-15T01:22:43.555Z,4.20
2017-12-15T01:25:11.260Z,4.17
2017-12-15T01:27:38.943Z,4.53
2017-12-15T01:30:07.425Z,5.23
2017-12-15T01:32:35.076Z,4.67
2017-12-15T01:35:03.555Z,3.80
2017-12-15T01:37:31.978Z,2.70
2017-12-15T01:39:59.719Z,3.30
2017-12-15T01:42:27.374Z,2.70
2017-12-15T01:44:55.111Z,5.30
2017-12-15T01:47:23.578Z,3.50
2017-12-15T01:49:52.003Z,3.87
2017-12-15T01:52:19.703Z,4.30
2017-12-15T01:54:47.401Z,3.23
2017-12-15T01:57:15.109Z,4.00
2017-12-15T01:59:42.784Z,4.20
2017-12-15T02:02:10.486Z,3.10
2017-12-15T02:04:38.147Z,3.70
2017-12-15T02:07:05.860Z,2.97
2017-12-15T02:09:33.562Z,4.30
2017-12-15T02:12:01.260Z,3.03
2017-12-15T02:14:28.942Z,2.20
2017-12-15T02:16:56.634Z,4.07
2017-12-15T03:12:20.010Z,3.17
2017-12-15T03:14:47.708Z,4.47
2017-12-15T03:17:15.367Z,3.23
2017-12-15T03:19:43.068Z,2.53
2017-12-15T03:22:11.495Z,2.40
2017-12-15T03:24:39.186Z,2.20
2017-12-15T03:27:07.618Z,1.80
2017-12-15T03:29:35.450Z,1.90
2017-12-15T03:32:03.099Z,2.07
2017-12-15T03:34:31.558Z,2.47
2017-12-15T03:36:59.219Z,1.80
2017-12-15T03:39:26.918Z,2.23
2017-12-15T03:41:54.586Z,2.30
2017-12-15T03:44:22.290Z,2.50
2017-12-15T03:46:49.967Z,5.53
2017-12-15T03:49:18.441Z,2.70
2017-12-15T03:51:46.877Z,3.40
2017-12-15T03:54:14.595Z,3.90
2017-12-15T03:56:43.010Z,4.07
2017-12-15T03:59:10.710Z,4.10
2017-12-15T04:01:38.364Z,4.90
2017-12-15T04:04:06.022Z,4.00
2017-12-15T04:06:33.734Z,5.20
2017-12-15T04:09:01.435Z,5.37
2017-12-15T04:11:29.123Z,10.80
2017-12-15T04:13:57.557Z,5.43
2017-12-15T04:16:25.260Z,4.70
2017-12-15T04:18:53.725Z,6.30
2017-12-15T04:21:21.458Z,3.93
2017-12-15T04:23:49.124Z,6.20
2017-12-15T04:26:16.841Z,7.63
2017-12-15T04:28:44.511Z,7.30
2017-12-15T04:31:12.218Z,5.17
2017-12-15T04:33:39.972Z,4.17
2017-12-15T04:36:07.870Z,7.50
2017-12-15T04:38:35.705Z,9.13
2017-12-15T04:41:03.426Z,7.70
2017-12-15T04:43:31.091Z,4.13
2017-12-15T04:45:58.810Z,3.70
2017-12-15T04:48:27.271Z,6.53
2017-12-15T04:50:54.999Z,3.70
2017-12-15T04:53:22.666Z,4.53
2017-12-15T04:55:50.402Z,3.07
2017-12-15T04:58:18.067Z,3.00
2017-12-15T05:00:45.815Z,4.60
2017-12-15T05:03:13.491Z,3.00
2017-12-15T05:05:41.215Z,2.53
2017-12-15T05:08:09.668Z,2.50
2017-12-15T05:10:37.395Z,3.63
2017-12-15T05:13:05.062Z,2.13
2017-12-15T05:15:32.775Z,4.03
2017-12-15T05:18:01.211Z,2.20
2017-12-15T05:20:28.923Z,2.43
2017-12-15T05:22:56.920Z,2.80
2017-12-15T05:25:24.659Z,3.43
2017-12-15T05:27:52.365Z,3.30
2017-12-15T05:30:20.092Z,4.70
2017-12-15T05:32:47.770Z,2.50
2017-12-15T05:35:15.462Z,3.00
2017-12-15T05:37:43.164Z,3.03
2017-12-15T05:40:10.935Z,2.60
2017-12-15T05:42:38.611Z,3.10
2017-12-15T05:45:06.296Z,4.70
2017-12-15T05:47:34.023Z,2.43
2017-12-15T05:50:01.714Z,4.37
2017-12-15T05:52:29.427Z,3.77
2017-12-15T05:54:57.080Z,2.57
2017-12-15T05:57:24.775Z,3.17
2017-12-15T05:59:52.431Z,2.73
2017-12-15T06:02:20.134Z,3.07
2017-12-15T06:04:48.551Z,3.03
2017-12-15T06:07:16.240Z,6.40
2017-12-15T06:09:43.917Z,5.97
2017-12-15T06:12:11.619Z,3.40
2017-12-15T06:14:39.288Z,3.50
2017-12-15T06:17:06.982Z,3.30
2017-12-15T06:19:34.654Z,6.67
2017-12-15T06:22:02.366Z,2.67
2017-12-15T06:24:30.019Z,5.50
2017-12-15T06:26:58.537Z,2.47
2017-12-15T06:29:26.986Z,1.77
2017-12-15T06:31:54.747Z,5.20
2017-12-15T06:34:22.472Z,3.50
2017-12-15T06:36:50.963Z,2.13
2017-12-15T06:39:18.647Z,2.60
2017-12-15T06:41:46.385Z,5.70
2017-12-15T06:44:14.058Z,2.57
2017-12-15T06:46:41.801Z,1.30
2017-12-15T06:49:09.463Z,2.17
2017-12-15T06:51:38.022Z,5.90
2017-12-15T06:54:06.446Z,2.10
2017-12-15T06:56:34.407Z,2.40
2017-12-15T06:59:02.482Z,3.33
2017-12-15T07:01:30.311Z,2.57
2017-12-15T07:03:59.061Z,1.50
2017-12-15T07:06:26.993Z,1.87
2017-12-15T07:08:54.659Z,3.80
2017-12-15T07:11:22.351Z,2.87
2017-12-15T07:13:49.999Z,3.17
2017-12-15T07:16:17.702Z,1.77
2017-12-15T07:18:46.115Z,2.70
2017-12-15T07:21:13.808Z,3.70
2017-12-15T07:23:41.467Z,1.80
2017-12-15T07:26:09.258Z,1.50
2017-12-15T07:28:37.682Z,4.70
2017-12-15T07:31:05.393Z,1.90
2017-12-15T07:33:33.815Z,2.27
2017-12-15T07:36:01.538Z,2.63
2017-12-15T07:38:29.186Z,3.00
2017-12-15T07:40:56.939Z,3.33
2017-12-15T07:43:26.905Z,3.40
2017-12-15T07:45:55.677Z,2.50
2017-12-15T07:48:23.377Z,5.80
2017-12-15T07:50:51.122Z,2.70
2017-12-15T07:53:19.587Z,5.27
2017-12-15T07:55:49.370Z,4.20
2017-12-15T07:58:17.960Z,4.87
2017-12-15T08:00:45.819Z,4.47
2017-12-15T08:03:13.547Z,5.13
2017-12-15T08:05:41.233Z,2.40
2017-12-15T08:08:08.939Z,5.13
2017-12-15T08:10:36.643Z,3.43
2017-12-15T08:13:05.358Z,5.23
2017-12-15T08:15:33.082Z,2.50
2017-12-15T08:18:01.592Z,11.07
2017-12-15T08:20:29.426Z,5.40
2017-12-15T08:22:57.913Z,4.90
2017-12-15T08:25:25.576Z,5.90
2017-12-15T08:27:53.299Z,3.27
2017-12-15T08:30:20.995Z,3.03
2017-12-15T08:32:48.695Z,4.70
2017-12-15T08:35:16.348Z,7.30
2017-12-15T08:37:44.091Z,4.17
2017-12-15T08:40:14.076Z,5.80
2017-12-15T08:42:42.561Z,4.40
2017-12-15T08:45:11.022Z,3.80
2017-12-15T08:47:38.917Z,3.00
2017-12-15T08:50:06.865Z,6.80
2017-12-15T08:52:35.347Z,10.03
2017-12-15T08:55:03.799Z,4.80
2017-12-15T08:57:31.638Z,4.43
2017-12-15T08:59:59.404Z,4.90
2017-12-15T09:02:27.135Z,4.50
2017-12-15T09:04:54.826Z,4.83
2017-12-15T09:07:22.528Z,7.97
2017-12-15T09:09:50.968Z,6.00
2017-12-15T09:12:18.695Z,8.57
2017-12-15T09:14:46.367Z,6.70
2017-12-15T09:17:14.077Z,11.40
2017-12-15T09:19:42.519Z,7.47
2017-12-15T09:22:10.239Z,5.43
2017-12-15T09:24:37.923Z,6.03
2017-12-15T09:27:05.634Z,10.33
2017-12-15T09:29:34.103Z,9.17
2017-12-15T09:32:01.858Z,13.60
2017-12-15T09:34:29.531Z,6.73
2017-12-15T09:36:57.292Z,10.40
2017-12-15T09:39:24.947Z,4.40
2017-12-15T09:41:52.692Z,4.57
2017-12-15T09:44:20.383Z,6.47
2017-12-15T09:46:48.834Z,6.40
2017-12-15T09:49:16.480Z,4.20
2017-12-15T09:51:44.181Z,4.57
2017-12-15T09:54:12.816Z,2.10
2017-12-15T09:56:40.566Z,3.40
2017-12-15T09:59:08.291Z,1.53
2017-12-15T10:01:36.008Z,6.83
2017-12-15T10:04:03.669Z,1.13
2017-12-15T10:06:31.379Z,0.80
2017-12-15T10:08:59.026Z,0.70
2017-12-15T10:11:27.487Z,0.87
2017-12-15T10:13:55.148Z,1.40
2017-12-15T10:16:22.804Z,0.60
2017-12-15T10:18:51.355Z,0.70
2017-12-15T10:21:19.003Z,0.73
2017-12-15T10:23:46.696Z,0.83
2017-12-15T10:26:14.363Z,1.03
2017-12-15T10:28:42.063Z,2.40
2017-12-15T10:31:09.706Z,1.33
2017-12-15T10:33:38.184Z,0.70
2017-12-15T10:36:06.644Z,1.20
2017-12-15T10:38:35.118Z,0.97
2017-12-15T10:41:02.793Z,1.10
2017-12-15T10:43:31.325Z,1.37
2017-12-15T10:45:58.973Z,0.90
2017-12-15T10:48:26.663Z,1.57
2017-12-15T10:50:54.316Z,3.17
2017-12-15T10:53:22.027Z,2.07
2017-12-15T10:55:49.675Z,1.47
2017-12-15T10:58:18.138Z,2.60
2017-12-15T11:00:46.566Z,2.10
2017-12-15T11:03:14.295Z,1.37
2017-12-15T11:05:41.956Z,2.97
2017-12-15T11:08:10.414Z,2.37
2017-12-15T11:10:39.043Z,7.80
2017-12-15T11:13:06.730Z,1.30
2017-12-15T11:15:34.386Z,1.43
2017-12-15T11:18:02.090Z,1.10
2017-12-15T11:20:30.526Z,1.80
2017-12-15T11:22:58.238Z,1.43
2017-12-15T11:25:25.903Z,2.00
2017-12-15T11:27:53.611Z,10.80
2017-12-15T11:30:21.291Z,7.83
2017-12-15T11:32:49.771Z,2.40
2017-12-15T11:35:18.237Z,5.70
2017-12-15T11:37:46.076Z,37.73
2017-12-15T11:40:13.804Z,24.03
2017-12-15T11:42:41.511Z,7.17
2017-12-15T11:45:09.203Z,3.23
2017-12-15T11:47:37.719Z,5.03
2017-12-15T11:50:05.394Z,7.03
2017-12-15T11:52:33.108Z,11.07
2017-12-15T11:55:01.567Z,17.40
2017-12-15T11:57:30.067Z,4.70
2017-12-15T11:59:57.783Z,4.37
2017-12-15T12:02:25.543Z,6.40
2017-12-15T12:04:53.238Z,5.40
2017-12-15T12:07:21.715Z,4.03
2017-12-15T12:09:50.167Z,4.40
2017-12-15T12:12:17.909Z,4.47
2017-12-15T12:14:45.575Z,5.60
2017-12-15T12:17:13.303Z,1.80
2017-12-15T12:19:40.974Z,2.33
2017-12-15T12:22:08.699Z,3.53
2017-12-15T12:24:37.151Z,4.10
2017-12-15T12:27:04.891Z,4.60
2017-12-15T12:29:32.599Z,4.60
2017-12-15T12:32:01.068Z,26.63
2017-12-15T12:34:29.495Z,5.60
2017-12-15T12:36:57.252Z,4.80
2017-12-15T12:39:24.921Z,4.13
2017-12-15T12:41:52.571Z,4.93
2017-12-15T12:44:20.267Z,4.47
2017-12-15T12:46:47.922Z,6.83
2017-12-15T12:49:15.633Z,3.97
2017-12-15T12:51:43.303Z,4.03
2017-12-15T12:54:11.087Z,5.40
2017-12-15T12:56:38.751Z,5.53
2017-12-15T12:59:06.458Z,4.77
2017-12-15T13:01:34.926Z,6.30
2017-12-15T13:04:03.469Z,3.63
2017-12-15T13:06:31.194Z,3.70
2017-12-15T13:08:58.918Z,4.47
2017-12-15T13:11:26.566Z,3.87
2017-12-15T13:13:55.011Z,5.90
2017-12-15T13:16:22.667Z,4.77
2017-12-15T13:18:50.392Z,5.00
2017-12-15T13:21:18.859Z,5.83
2017-12-15T13:23:47.342Z,15.80
2017-12-15T13:26:15.819Z,7.43
2017-12-15T13:28:46.991Z,7.70
2017-12-15T13:31:14.688Z,8.80
2017-12-15T13:33:42.454Z,6.90
2017-12-15T13:36:10.127Z,6.97
2017-12-15T13:38:37.863Z,15.60
2017-12-15T13:41:05.551Z,11.23
2017-12-15T13:43:33.259Z,27.07
2017-12-15T13:46:00.931Z,15.07
2017-12-15T13:48:28.672Z,20.53
2017-12-15T13:50:56.334Z,8.20
2017-12-15T13:53:24.053Z,15.40
2017-12-15T13:55:52.513Z,11.20
2017-12-15T13:58:20.220Z,26.80
2017-12-15T14:00:47.896Z,16.73
2017-12-15T14:03:15.595Z,8.03
2017-12-15T14:05:43.251Z,7.77
2017-12-15T14:08:10.954Z,6.93
2017-12-15T14:10:38.623Z,6.17
2017-12-15T14:13:06.323Z,5.77
2017-12-15T14:15:33.975Z,5.50
2017-12-15T14:18:01.704Z,5.63
2017-12-15T14:20:29.387Z,7.20
2017-12-15T14:22:57.111Z,6.40
2017-12-15T14:25:24.849Z,7.70
2017-12-15T14:27:52.617Z,6.27
2017-12-15T14:30:21.056Z,7.00
2017-12-15T14:32:48.796Z,6.83
2017-12-15T14:35:16.512Z,6.80
2017-12-15T14:37:44.995Z,8.10
2017-12-15T14:40:13.450Z,8.13
2017-12-15T14:42:41.186Z,9.97
2017-12-15T14:45:08.892Z,10.47
2017-12-15T14:47:37.366Z,11.17
2017-12-15T14:50:05.036Z,14.67
2017-12-15T14:52:33.494Z,15.60
2017-12-15T14:55:01.208Z,9.40
2017-12-15T14:57:28.882Z,8.83
2017-12-15T14:59:56.592Z,11.50
2017-12-15T15:02:25.028Z,9.33
2017-12-15T15:04:52.726Z,11.90
2017-12-15T15:07:21.199Z,10.17
2017-12-15T15:09:49.668Z,8.57
2017-12-15T15:12:17.316Z,6.33
2017-12-15T15:14:45.038Z,8.50
2017-12-15T15:17:12.702Z,10.60
2017-12-15T15:19:40.427Z,6.00
2017-12-15T15:22:08.863Z,5.47
2017-12-15T15:24:36.579Z,5.40
2017-12-15T15:27:04.239Z,5.67
2017-12-15T15:29:31.952Z,6.63
2017-12-15T15:31:59.608Z,8.70
2017-12-15T15:34:27.568Z,8.63
2017-12-15T15:36:55.282Z,5.53
2017-12-15T15:39:23.797Z,8.43
2017-12-15T15:41:51.515Z,5.10
2017-12-15T15:44:20.049Z,5.73
2017-12-15T15:46:47.738Z,5.97
2017-12-15T15:49:15.488Z,8.67
2017-12-15T15:51:43.416Z,6.60
2017-12-15T15:54:11.158Z,6.30
2017-12-15T15:56:38.888Z,5.80
2017-12-15T15:59:06.640Z,6.30
2017-12-15T16:01:34.332Z,7.80
2017-12-15T16:04:02.099Z,10.50
2017-12-15T16:06:29.820Z,7.73
2017-12-15T16:08:57.560Z,7.83
2017-12-15T16:11:25.251Z,8.50
2017-12-15T16:13:52.979Z,6.43
2017-12-15T16:16:20.690Z,7.53
2017-12-15T16:18:49.207Z,6.23
2017-12-15T16:21:16.866Z,6.80
2017-12-15T16:23:44.607Z,8.27
2017-12-15T16:26:12.304Z,9.20
2017-12-15T16:28:40.067Z,6.30
2017-12-15T16:31:07.755Z,10.27
2017-12-15T16:33:35.495Z,7.70
2017-12-15T16:36:03.187Z,6.40
2017-12-15T16:38:31.711Z,6.33
2017-12-15T16:40:59.430Z,5.73
2017-12-15T16:43:27.962Z,6.50
2017-12-15T16:45:55.682Z,7.53
2017-12-15T16:48:25.061Z,8.17
2017-12-15T16:50:53.563Z,15.00
2017-12-15T16:53:21.331Z,7.83
2017-12-15T16:55:49.056Z,12.33
2017-12-15T16:58:16.823Z,6.47
2017-12-15T17:00:45.309Z,6.40
2017-12-15T17:03:13.820Z,6.30
2017-12-15T17:05:41.516Z,10.07
2017-12-15T17:08:09.256Z,12.10
2017-12-15T17:10:36.975Z,9.47
2017-12-15T17:13:05.462Z,7.77
2017-12-15T17:15:33.227Z,6.53
2017-12-15T17:18:00.945Z,5.07
2017-12-15T17:20:28.794Z,5.60
2017-12-15T17:22:56.503Z,5.23
2017-12-15T17:25:25.048Z,13.30
2017-12-15T17:27:52.767Z,22.23
2017-12-15T17:30:20.531Z,26.70
2017-12-15T17:32:48.259Z,27.33
2017-12-15T17:35:16.811Z,8.77
2017-12-15T17:37:44.556Z,6.40
2017-12-15T17:40:12.323Z,10.60
2017-12-15T17:42:40.800Z,15.30
2017-12-15T17:45:08.605Z,26.53
2017-12-15T17:47:37.055Z,11.70
2017-12-15T17:50:04.827Z,7.10
2017-12-15T17:52:32.839Z,8.43
2017-12-15T17:55:00.563Z,4.10
2017-12-15T17:57:29.024Z,6.50
2017-12-15T17:59:56.896Z,5.90
2017-12-15T18:02:24.686Z,4.80
2017-12-15T18:04:52.409Z,9.53
2017-12-15T18:07:20.084Z,10.37
2017-12-15T18:09:48.750Z,7.23
2017-12-15T18:12:16.459Z,6.57
2017-12-15T18:14:44.259Z,7.00
2017-12-15T18:17:11.933Z,10.80
2017-12-15T18:19:39.733Z,13.87
2017-12-15T18:22:07.588Z,10.00
2017-12-15T18:24:36.062Z,9.90
2017-12-15T18:27:04.495Z,8.13
2017-12-15T18:29:32.584Z,9.87
2017-12-15T18:32:00.263Z,18.30
2017-12-15T18:34:28.770Z,16.73
2017-12-15T18:36:56.458Z,15.17
2017-12-15T18:39:24.215Z,13.90
2017-12-15T18:41:51.889Z,14.27
2017-12-15T18:44:20.433Z,13.63
2017-12-15T18:46:48.124Z,9.07
2017-12-15T18:49:15.826Z,8.40
2017-12-15T18:51:45.002Z,7.20
2017-12-15T18:54:12.707Z,8.97
2017-12-15T18:56:40.397Z,8.67
2017-12-15T18:59:08.166Z,8.40
2017-12-15T19:01:35.886Z,7.60
2017-12-15T19:04:03.647Z,7.83
2017-12-15T19:06:31.373Z,7.30
2017-12-15T19:08:59.096Z,8.50
2017-12-15T19:11:26.776Z,9.13
2017-12-15T19:13:54.559Z,9.30
2017-12-15T19:16:22.275Z,10.47
2017-12-15T19:18:50.019Z,10.13
2017-12-15T19:21:17.738Z,8.83
2017-12-15T19:23:45.488Z,10.00
2017-12-15T19:26:13.211Z,9.63
2017-12-15T19:28:40.987Z,18.33
2017-12-15T19:31:08.770Z,16.33
2017-12-15T19:33:36.462Z,9.90
2017-12-15T19:36:04.991Z,9.00
2017-12-15T19:38:32.683Z,9.13
2017-12-15T19:41:00.459Z,11.17
2017-12-15T19:43:28.943Z,14.40
2017-12-15T19:45:57.459Z,26.30
2017-12-15T19:48:25.118Z,16.60
2017-12-15T19:50:52.892Z,15.50
2017-12-15T19:53:20.568Z,12.53
2017-12-15T19:55:48.290Z,9.80
2017-12-15T19:58:16.000Z,14.83
2017-12-15T20:00:43.764Z,15.20
2017-12-15T20:03:11.428Z,14.87
2017-12-15T20:05:39.158Z,14.73
2017-12-15T20:08:06.870Z,12.60
2017-12-15T20:10:35.354Z,14.17
2017-12-15T20:13:03.095Z,18.20
2017-12-15T20:15:31.580Z,9.97
2017-12-15T20:18:00.064Z,11.27
2017-12-15T20:20:28.565Z,9.50
2017-12-15T20:22:56.275Z,10.57
2017-12-15T20:25:23.995Z,9.03
2017-12-15T20:27:51.683Z,7.77
2017-12-15T20:30:19.450Z,8.97
2017-12-15T20:32:47.139Z,6.23
2017-12-15T20:35:15.656Z,6.60
2017-12-15T20:37:43.363Z,6.60
2017-12-15T20:40:11.115Z,8.40
2017-12-15T20:42:38.787Z,8.37
2017-12-15T20:45:07.334Z,8.20
2017-12-15T20:47:35.913Z,9.27
2017-12-15T20:50:03.660Z,9.80
2017-12-15T20:52:31.387Z,9.80
2017-12-15T20:57:33.867Z,12.00
2017-12-15T21:00:02.417Z,11.83
2017-12-15T21:02:30.149Z,13.00
2017-12-15T21:04:57.911Z,11.93
2017-12-15T21:07:25.607Z,11.27
2017-12-15T21:09:53.373Z,9.90
2017-12-15T21:12:21.844Z,10.80
2017-12-15T21:14:49.791Z,10.97
2017-12-15T21:17:17.508Z,9.97
2017-12-15T21:19:45.256Z,13.83
2017-12-15T21:22:13.735Z,11.27
2017-12-15T21:24:42.224Z,11.47
2017-12-15T21:27:09.899Z,10.13
2017-12-15T21:29:37.631Z,12.03
2017-12-15T21:32:06.093Z,9.77
2017-12-15T21:34:33.876Z,9.73
2017-12-15T21:37:02.323Z,9.17
2017-12-15T21:39:30.043Z,10.63
2017-12-15T21:41:57.723Z,11.87
2017-12-15T21:44:25.436Z,12.10
2017-12-15T21:46:53.915Z,15.43
2017-12-15T21:49:22.405Z,16.97
2017-12-15T21:51:50.108Z,18.53
2017-12-15T21:54:17.883Z,19.40
2017-12-15T21:56:45.615Z,15.37
2017-12-15T21:59:13.307Z,14.10
2017-12-15T22:01:41.025Z,17.50
2017-12-15T22:04:08.699Z,26.93
2017-12-15T22:06:36.419Z,24.63
2017-12-15T22:09:04.906Z,17.33
2017-12-15T22:11:32.639Z,13.70
2017-12-15T22:14:00.319Z,14.97
2017-12-15T22:16:28.799Z,17.20
2017-12-15T22:18:57.255Z,19.20
2017-12-15T22:21:25.003Z,18.97
2017-12-15T22:23:52.681Z,18.30
2017-12-15T22:26:21.176Z,16.10
2017-12-15T22:28:49.655Z,18.53
2017-12-15T22:31:18.139Z,16.00
2017-12-15T22:33:45.801Z,13.43
2017-12-15T22:36:13.647Z,14.13
2017-12-15T22:38:42.079Z,15.90
2017-12-15T22:41:09.804Z,10.70
2017-12-15T22:43:37.483Z,12.83
2017-12-15T22:46:05.258Z,12.10
2017-12-15T22:48:32.964Z,11.50
2017-12-15T22:51:00.716Z,12.80
2017-12-15T22:53:28.401Z,11.43
2017-12-15T22:55:56.135Z,13.33
2017-12-15T22:58:23.818Z,11.17
2017-12-15T23:00:52.282Z,10.80
2017-12-15T23:03:20.740Z,12.33
2017-12-15T23:05:48.466Z,10.37
2017-12-15T23:08:16.147Z,10.90
2017-12-15T23:10:43.887Z,12.00
2017-12-15T23:13:11.557Z,13.00
2017-12-15T23:15:39.300Z,13.23
2017-12-15T23:18:06.978Z,13.60
2017-12-15T23:20:34.720Z,11.40
2017-12-15T23:23:02.411Z,10.93
2017-12-15T23:25:30.159Z,12.73
2017-12-15T23:27:57.823Z,10.40
2017-12-15T23:30:25.544Z,10.80
2017-12-15T23:32:54.901Z,10.10
2017-12-15T23:35:22.626Z,11.07
2017-12-15T23:37:50.332Z,13.87
2017-12-15T23:40:18.039Z,11.60
2017-12-15T23:42:45.741Z,16.60
2017-12-15T23:45:14.287Z,13.40
2017-12-15T23:47:42.003Z,12.83
2017-12-15T23:50:10.535Z,15.30
2017-12-15T23:52:38.191Z,14.07
2017-12-15T23:55:17.698Z,15.13
2017-12-15T23:57:45.391Z,12.20
